createdAt,value
2023-01-20T00:00:21.383Z,99.99
2023-01-20T00:01:21.290Z,99.99
2023-01-20T00:02:21.452Z,99.99
2023-01-20T00:03:21.278Z,99.99
2023-01-20T00:04:21.246Z,99.99
2023-01-20T00:05:21.231Z,99.99
2023-01-20T00:06:21.239Z,99.99
2023-01-20T00:07:21.233Z,99.99
2023-01-20T00:08:21.195Z,99.99
2023-01-20T00:09:21.188Z,99.99
2023-01-20T00:10:21.168Z,99.99
2023-01-20T00:11:21.157Z,99.99
2023-01-20T00:12:21.155Z,99.99
2023-01-20T00:13:21.124Z,99.99
2023-01-20T00:14:21.117Z,99.99
2023-01-20T00:15:21.110Z,99.99
2023-01-20T00:16:21.138Z,99.99
2023-01-20T00:17:21.090Z,99.99
2023-01-20T00:18:21.091Z,99.99
2023-01-20T00:19:21.068Z,99.99
2023-01-20T00:20:21.043Z,99.99
2023-01-20T00:21:21.039Z,99.99
2023-01-20T00:22:21.042Z,99.99
2023-01-20T00:23:21.009Z,99.99
2023-01-20T00:24:20.997Z,99.99
2023-01-20T00:25:20.977Z,99.99
2023-01-20T00:26:20.981Z,99.99
2023-01-20T00:27:20.972Z,99.99
2023-01-20T00:28:20.941Z,99.99
2023-01-20T00:29:20.928Z,99.99
2023-01-20T00:30:20.934Z,99.99
2023-01-20T00:31:20.960Z,99.99
2023-01-20T00:32:20.901Z,99.99
2023-01-20T00:33:20.885Z,99.99
2023-01-20T00:34:20.881Z,99.99
2023-01-20T00:35:20.852Z,99.99
2023-01-20T00:36:20.854Z,99.99
2023-01-20T00:37:20.853Z,99.99
2023-01-20T00:38:20.814Z,99.99
2023-01-20T00:39:20.807Z,99.99
2023-01-20T00:40:20.785Z,99.99
2023-01-20T00:41:20.778Z,99.99
2023-01-20T00:42:20.774Z,99.99
2023-01-20T00:43:20.752Z,99.99
2023-01-20T00:44:20.735Z,99.99
2023-01-20T00:45:20.730Z,99.99
2023-01-20T00:46:20.711Z,99.99
2023-01-20T00:47:20.727Z,99.99
2023-01-20T00:48:20.705Z,99.99
2023-01-20T00:49:20.675Z,99.99
2023-01-20T00:50:20.703Z,99.99
2023-01-20T00:51:20.652Z,99.99
2023-01-20T00:52:20.655Z,99.99
2023-01-20T00:53:20.624Z,99.99
2023-01-20T00:54:20.611Z,99.99
2023-01-20T00:55:20.598Z,99.99
2023-01-20T00:56:20.587Z,99.99
2023-01-20T00:57:20.574Z,99.99
2023-01-20T00:58:20.579Z,99.99
2023-01-20T00:59:20.556Z,99.99
2023-01-20T01:00:20.558Z,99.99
2023-01-20T01:01:20.622Z,99.99
2023-01-20T01:02:20.546Z,99.99
2023-01-20T01:03:20.513Z,99.99
2023-01-20T01:04:20.485Z,99.99
2023-01-20T01:05:20.479Z,99.99
2023-01-20T01:06:20.482Z,99.99
2023-01-20T01:07:20.451Z,99.99
2023-01-20T01:08:20.452Z,99.99
2023-01-20T01:09:20.423Z,99.99
2023-01-20T01:10:20.409Z,99.99
2023-01-20T01:11:20.398Z,99.99
2023-01-20T01:12:20.385Z,99.99
2023-01-20T01:13:20.384Z,99.99
2023-01-20T01:14:20.358Z,99.99
2023-01-20T01:15:20.347Z,99.99
2023-01-20T01:16:20.383Z,99.99
2023-01-20T01:17:20.320Z,99.99
2023-01-20T01:18:20.320Z,99.99
2023-01-20T01:19:20.295Z,99.99
2023-01-20T01:20:20.278Z,99.99
2023-01-20T01:21:20.268Z,99.99
2023-01-20T01:22:20.274Z,99.99
2023-01-20T01:23:20.267Z,99.99
2023-01-20T01:24:20.236Z,99.99
2023-01-20T01:25:20.226Z,99.99
2023-01-20T01:26:20.208Z,99.99
2023-01-20T01:27:20.192Z,99.99
2023-01-20T01:28:20.209Z,99.99
2023-01-20T01:29:20.168Z,99.99
2023-01-20T01:30:20.242Z,99.99
2023-01-20T01:31:20.230Z,99.99
2023-01-20T01:32:20.127Z,99.99
2023-01-20T01:33:20.135Z,99.99
2023-01-20T01:34:20.102Z,99.99
2023-01-20T01:35:20.099Z,99.99
2023-01-20T01:36:20.083Z,99.99
2023-01-20T01:37:20.073Z,99.99
2023-01-20T01:38:20.087Z,99.99
2023-01-20T01:39:20.043Z,99.99
2023-01-20T01:40:20.032Z,99.99
2023-01-20T01:41:20.017Z,99.99
2023-01-20T01:42:20.012Z,99.99
2023-01-20T01:43:20.015Z,99.99
2023-01-20T01:44:19.976Z,99.99
2023-01-20T01:45:19.967Z,99.99
2023-01-20T01:46:19.959Z,99.99
2023-01-20T01:47:19.942Z,99.99
2023-01-20T01:48:19.945Z,99.99
2023-01-20T01:49:19.922Z,99.99
2023-01-20T01:50:19.908Z,99.99
2023-01-20T01:51:19.931Z,99.99
2023-01-20T01:52:19.878Z,99.99
2023-01-20T01:53:19.888Z,99.99
2023-01-20T01:54:19.876Z,99.99
2023-01-20T01:55:19.855Z,99.99
2023-01-20T01:56:19.833Z,99.99
2023-01-20T01:57:19.824Z,99.99
2023-01-20T01:58:19.820Z,99.99
2023-01-20T01:59:19.793Z,99.99
2023-01-20T02:00:19.785Z,99.99
2023-01-20T02:01:19.901Z,99.99
2023-01-20T02:02:22.709Z,99.99
2023-01-20T02:03:19.755Z,99.99
2023-01-20T02:04:19.736Z,99.99
2023-01-20T02:05:19.717Z,99.99
2023-01-20T02:06:19.707Z,99.99
2023-01-20T02:07:19.695Z,99.99
2023-01-20T02:08:19.694Z,99.99
2023-01-20T02:09:19.673Z,99.99
2023-01-20T02:10:19.681Z,99.99
2023-01-20T02:11:19.648Z,99.99
2023-01-20T02:12:19.632Z,99.99
2023-01-20T02:13:19.635Z,99.99
2023-01-20T02:14:19.605Z,99.99
2023-01-20T02:15:19.593Z,99.99
2023-01-20T02:16:19.631Z,99.99
2023-01-20T02:17:19.581Z,99.99
2023-01-20T02:18:19.573Z,99.99
2023-01-20T02:19:19.544Z,99.99
2023-01-20T02:20:19.545Z,99.99
2023-01-20T02:21:19.518Z,99.99
2023-01-20T02:22:19.506Z,99.99
2023-01-20T02:23:19.511Z,99.99
2023-01-20T02:24:19.480Z,99.99
2023-01-20T02:25:19.475Z,99.99
2023-01-20T02:26:19.471Z,99.99
2023-01-20T02:27:19.450Z,99.99
2023-01-20T02:28:19.447Z,99.99
2023-01-20T02:29:19.422Z,99.99
2023-01-20T02:30:19.428Z,99.99
2023-01-20T02:31:19.453Z,99.99
2023-01-20T02:32:19.379Z,99.99
2023-01-20T02:33:19.385Z,99.99
2023-01-20T02:34:19.353Z,99.99
2023-01-20T02:35:19.346Z,99.99
2023-01-20T02:36:19.329Z,99.99
2023-01-20T02:37:19.318Z,99.99
2023-01-20T02:38:19.330Z,99.99
2023-01-20T02:39:27.273Z,99.99
2023-01-20T02:40:20.287Z,99.99
2023-01-20T02:41:19.276Z,99.99
2023-01-20T02:42:19.298Z,99.99
2023-01-20T02:43:19.260Z,99.99
2023-01-20T02:44:19.234Z,99.99
2023-01-20T02:45:19.220Z,99.99
2023-01-20T02:46:19.206Z,99.99
2023-01-20T02:47:19.197Z,99.99
2023-01-20T02:48:19.197Z,99.99
2023-01-20T02:49:19.167Z,99.99
2023-01-20T02:50:19.153Z,99.99
2023-01-20T02:51:19.143Z,99.99
2023-01-20T02:52:19.135Z,99.99
2023-01-20T02:53:19.130Z,99.99
2023-01-20T02:54:19.108Z,99.99
2023-01-20T02:55:19.093Z,99.99
2023-01-20T02:56:19.079Z,99.99
2023-01-20T02:57:19.074Z,99.99
2023-01-20T02:58:19.092Z,99.99
2023-01-20T02:59:19.053Z,99.99
2023-01-20T03:00:19.035Z,99.99
2023-01-20T03:01:19.079Z,99.99
2023-01-20T03:02:19.001Z,99.99
2023-01-20T03:03:19.004Z,99.99
2023-01-20T03:04:19.002Z,99.99
2023-01-20T03:05:18.965Z,99.99
2023-01-20T03:06:18.953Z,99.99
2023-01-20T03:07:18.943Z,99.99
2023-01-20T03:08:18.925Z,99.99
2023-01-20T03:09:18.931Z,99.99
2023-01-20T03:10:18.902Z,99.99
2023-01-20T03:11:18.894Z,99.99
2023-01-20T03:12:18.878Z,99.99
2023-01-20T03:13:18.868Z,99.99
2023-01-20T03:14:18.888Z,99.99
2023-01-20T03:15:18.845Z,99.99
2023-01-20T03:16:18.923Z,99.99
2023-01-20T03:17:18.813Z,99.99
2023-01-20T03:18:18.802Z,99.99
2023-01-20T03:19:20.390Z,99.99
2023-01-20T03:20:18.781Z,99.99
2023-01-20T03:21:18.769Z,99.99
2023-01-20T03:22:18.754Z,99.99
2023-01-20T03:23:18.739Z,99.99
2023-01-20T03:24:18.767Z,99.99
2023-01-20T03:25:18.725Z,99.99
2023-01-20T03:26:18.711Z,99.99
2023-01-20T03:27:18.688Z,99.99
2023-01-20T03:28:18.676Z,99.99
2023-01-20T03:29:18.685Z,99.99
2023-01-20T03:30:18.676Z,99.99
2023-01-20T03:31:18.768Z,99.99
2023-01-20T03:32:18.629Z,99.99
2023-01-20T03:33:18.615Z,99.99
2023-01-20T03:34:18.615Z,99.99
2023-01-20T03:35:18.590Z,99.99
2023-01-20T03:36:18.587Z,99.99
2023-01-20T03:37:18.568Z,99.99
2023-01-20T03:38:18.553Z,99.99
2023-01-20T03:39:18.550Z,99.99
2023-01-20T03:40:18.528Z,99.99
2023-01-20T03:41:18.514Z,99.99
2023-01-20T03:42:18.507Z,99.99
2023-01-20T03:43:18.494Z,99.99
2023-01-20T03:44:18.491Z,99.99
2023-01-20T03:45:18.471Z,99.99
2023-01-20T03:46:18.480Z,99.99
2023-01-20T03:47:18.446Z,99.99
2023-01-20T03:48:18.448Z,99.99
2023-01-20T03:49:18.457Z,99.99
2023-01-20T03:50:18.411Z,99.99
2023-01-20T03:51:18.395Z,99.99
2023-01-20T03:52:18.376Z,99.99
2023-01-20T03:53:18.371Z,99.99
2023-01-20T03:54:18.367Z,99.99
2023-01-20T03:55:18.362Z,99.99
2023-01-20T03:56:18.329Z,99.99
2023-01-20T03:57:18.329Z,99.99
2023-01-20T03:58:18.305Z,99.99
2023-01-20T03:59:18.315Z,99.99
2023-01-20T04:00:18.279Z,99.99
2023-01-20T04:01:19.201Z,99.99
2023-01-20T04:02:18.448Z,99.99
2023-01-20T04:03:18.260Z,99.99
2023-01-20T04:04:18.251Z,99.99
2023-01-20T04:05:18.218Z,99.99
2023-01-20T04:06:18.203Z,99.99
2023-01-20T04:07:18.206Z,99.99
2023-01-20T04:08:18.186Z,99.99
2023-01-20T04:09:18.192Z,99.99
2023-01-20T04:10:18.154Z,99.99
2023-01-20T04:11:18.139Z,99.99
2023-01-20T04:12:18.133Z,99.99
2023-01-20T04:13:18.119Z,99.99
2023-01-20T04:14:18.119Z,99.99
2023-01-20T04:15:18.182Z,99.99
2023-01-20T04:16:18.077Z,99.99
2023-01-20T04:17:18.067Z,99.99
2023-01-20T04:18:18.080Z,99.99
2023-01-20T04:19:18.065Z,99.99
2023-01-20T04:20:18.027Z,99.99
2023-01-20T04:21:18.016Z,99.99
2023-01-20T04:22:18.003Z,99.99
2023-01-20T04:23:17.987Z,99.99
2023-01-20T04:24:17.999Z,99.99
2023-01-20T04:25:17.959Z,99.99
2023-01-20T04:26:17.950Z,99.99
2023-01-20T04:27:17.937Z,99.99
2023-01-20T04:28:17.927Z,99.99
2023-01-20T04:29:17.913Z,99.99
2023-01-20T04:30:18.054Z,99.99
2023-01-20T04:31:29.480Z,99.99
2023-01-20T04:32:17.879Z,99.99
2023-01-20T04:33:17.868Z,99.99
2023-01-20T04:34:17.875Z,99.99
2023-01-20T04:35:17.859Z,99.99
2023-01-20T04:36:17.828Z,99.99
2023-01-20T04:37:17.809Z,99.99
2023-01-20T04:38:17.804Z,99.99
2023-01-20T04:39:17.793Z,99.99
2023-01-20T04:40:17.799Z,99.99
2023-01-20T04:41:17.772Z,99.99
2023-01-20T04:42:17.749Z,99.99
2023-01-20T04:43:17.741Z,99.99
2023-01-20T04:44:17.727Z,99.99
2023-01-20T04:45:17.912Z,99.99
2023-01-20T04:46:17.756Z,99.99
2023-01-20T04:47:17.694Z,99.99
2023-01-20T04:48:17.680Z,99.99
2023-01-20T04:49:17.675Z,99.99
2023-01-20T04:50:18.683Z,99.99
2023-01-20T04:51:17.639Z,99.99
2023-01-20T04:52:17.633Z,99.99
2023-01-20T04:53:17.616Z,99.99
2023-01-20T04:54:17.607Z,99.99
2023-01-20T04:55:17.810Z,99.99
2023-01-20T04:56:17.582Z,99.99
2023-01-20T04:57:17.566Z,99.99
2023-01-20T04:58:17.554Z,99.99
2023-01-20T04:59:17.541Z,99.99
2023-01-20T05:00:17.540Z,99.99
2023-01-20T05:01:17.606Z,99.99
2023-01-20T05:02:17.633Z,99.99
2023-01-20T05:03:17.486Z,99.99
2023-01-20T05:04:17.475Z,99.99
2023-01-20T05:05:17.874Z,99.99
2023-01-20T05:06:17.495Z,99.99
2023-01-20T05:07:17.439Z,99.99
2023-01-20T05:08:17.429Z,99.99
2023-01-20T05:09:17.412Z,99.99
2023-01-20T05:10:17.418Z,99.99
2023-01-20T05:11:17.389Z,99.99
2023-01-20T05:12:17.376Z,99.99
2023-01-20T05:13:17.362Z,99.99
2023-01-20T05:14:17.347Z,99.99
2023-01-20T05:15:17.574Z,99.99
2023-01-20T05:16:17.405Z,99.99
2023-01-20T05:17:17.308Z,99.99
2023-01-20T05:18:17.302Z,99.99
2023-01-20T05:19:17.288Z,99.99
2023-01-20T05:20:17.294Z,99.99
2023-01-20T05:21:17.261Z,99.99
2023-01-20T05:22:17.277Z,99.99
2023-01-20T05:23:17.235Z,99.99
2023-01-20T05:24:17.227Z,99.99
2023-01-20T05:25:17.338Z,99.99
2023-01-20T05:26:17.197Z,99.99
2023-01-20T05:27:17.215Z,99.99
2023-01-20T05:28:17.178Z,99.99
2023-01-20T05:29:17.171Z,99.99
2023-01-20T05:30:17.179Z,99.99
2023-01-20T05:31:17.272Z,99.99
2023-01-20T05:32:17.128Z,99.99
2023-01-20T05:33:17.129Z,99.99
2023-01-20T05:34:17.099Z,99.99
2023-01-20T05:35:17.437Z,99.99
2023-01-20T05:36:17.081Z,99.99
2023-01-20T05:37:17.067Z,99.99
2023-01-20T05:38:17.073Z,99.99
2023-01-20T05:39:17.053Z,99.99
2023-01-20T05:40:17.059Z,99.99
2023-01-20T05:41:17.011Z,99.99
2023-01-20T05:42:17.011Z,99.99
2023-01-20T05:43:16.989Z,99.99
2023-01-20T05:44:16.983Z,99.99
2023-01-20T05:45:17.484Z,99.99
2023-01-20T05:46:17.014Z,99.99
2023-01-20T05:47:16.936Z,99.99
2023-01-20T05:48:16.925Z,99.99
2023-01-20T05:49:16.917Z,99.99
2023-01-20T05:50:16.908Z,99.99
2023-01-20T05:51:16.903Z,99.99
2023-01-20T05:52:16.908Z,99.99
2023-01-20T05:53:16.864Z,99.99
2023-01-20T05:54:16.883Z,99.99
2023-01-20T05:55:17.065Z,99.99
2023-01-20T05:56:16.839Z,99.99
2023-01-20T05:57:16.811Z,99.99
2023-01-20T05:58:16.801Z,99.99
2023-01-20T05:59:16.868Z,99.99
2023-01-20T06:00:16.773Z,99.99
2023-01-20T06:01:16.799Z,99.99
2023-01-20T06:02:16.745Z,99.99
2023-01-20T06:03:16.741Z,99.99
2023-01-20T06:04:16.740Z,99.99
2023-01-20T06:05:17.118Z,99.99
2023-01-20T06:06:16.712Z,99.99
2023-01-20T06:07:16.700Z,99.99
2023-01-20T06:08:16.677Z,99.99
2023-01-20T06:09:16.664Z,99.99
2023-01-20T06:10:16.671Z,99.99
2023-01-20T06:11:16.648Z,99.99
2023-01-20T06:12:16.620Z,99.99
2023-01-20T06:13:16.613Z,99.99
2023-01-20T06:14:16.605Z,99.99
2023-01-20T06:15:16.925Z,99.99
2023-01-20T06:16:16.657Z,99.99
2023-01-20T06:17:16.573Z,99.99
2023-01-20T06:18:16.552Z,99.99
2023-01-20T06:19:16.540Z,99.99
2023-01-20T06:20:16.529Z,99.99
2023-01-20T06:21:16.525Z,99.99
2023-01-20T06:22:16.518Z,99.99
2023-01-20T06:23:16.495Z,99.99
2023-01-20T06:24:16.472Z,99.99
2023-01-20T06:25:16.860Z,99.99
2023-01-20T06:26:16.510Z,99.99
2023-01-20T06:27:16.445Z,99.99
2023-01-20T06:28:16.428Z,99.99
2023-01-20T06:29:16.411Z,99.99
2023-01-20T06:30:16.405Z,99.99
2023-01-20T06:31:16.512Z,99.99
2023-01-20T06:32:16.382Z,99.99
2023-01-20T06:33:16.363Z,99.99
2023-01-20T06:34:16.378Z,99.99
2023-01-20T06:35:16.808Z,99.99
2023-01-20T06:36:16.334Z,99.99
2023-01-20T06:37:16.308Z,99.99
2023-01-20T06:38:16.295Z,99.99
2023-01-20T06:39:16.285Z,99.99
2023-01-20T06:40:16.275Z,99.99
2023-01-20T06:41:16.286Z,99.99
2023-01-20T06:42:16.279Z,99.99
2023-01-20T06:43:16.242Z,99.99
2023-01-20T06:44:16.223Z,99.99
2023-01-20T06:45:16.586Z,99.99
2023-01-20T06:46:16.277Z,99.99
2023-01-20T06:47:16.187Z,99.99
2023-01-20T06:48:16.191Z,99.99
2023-01-20T06:49:16.158Z,99.99
2023-01-20T06:50:16.173Z,99.99
2023-01-20T06:51:16.157Z,99.99
2023-01-20T06:52:16.135Z,99.99
2023-01-20T06:53:16.128Z,99.99
2023-01-20T06:54:16.103Z,99.99
2023-01-20T06:55:16.573Z,99.99
2023-01-20T06:56:16.094Z,99.99
2023-01-20T06:57:16.059Z,99.99
2023-01-20T06:58:16.068Z,99.99
2023-01-20T06:59:16.035Z,99.99
2023-01-20T07:00:16.040Z,99.99
2023-01-20T07:01:16.163Z,99.99
2023-01-20T07:02:16.177Z,99.99
2023-01-20T07:03:15.986Z,99.99
2023-01-20T07:04:15.976Z,99.99
2023-01-20T07:05:16.256Z,99.99
2023-01-20T07:06:15.994Z,99.99
2023-01-20T07:07:15.938Z,99.99
2023-01-20T07:08:15.927Z,99.99
2023-01-20T07:09:15.914Z,99.99
2023-01-20T07:10:15.899Z,99.99
2023-01-20T07:11:15.897Z,99.99
2023-01-20T07:12:15.887Z,99.99
2023-01-20T07:13:15.857Z,99.99
2023-01-20T07:14:15.869Z,99.99
2023-01-20T07:15:16.186Z,99.99
2023-01-20T07:16:16.222Z,99.99
2023-01-20T07:17:15.807Z,99.99
2023-01-20T07:18:15.804Z,99.99
2023-01-20T07:19:15.781Z,99.99
2023-01-20T07:20:15.772Z,99.99
2023-01-20T07:21:15.775Z,99.99
2023-01-20T07:22:15.747Z,99.99
2023-01-20T07:23:15.729Z,99.99
2023-01-20T07:24:15.723Z,99.99
2023-01-20T07:25:15.986Z,99.99
2023-01-20T07:26:15.710Z,99.99
2023-01-20T07:27:15.678Z,99.99
2023-01-20T07:28:15.671Z,99.99
2023-01-20T07:29:17.858Z,99.99
2023-01-20T07:30:15.668Z,99.99
2023-01-20T07:31:15.684Z,99.99
2023-01-20T07:32:15.638Z,99.99
2023-01-20T07:33:15.611Z,99.99
2023-01-20T07:34:15.594Z,99.99
2023-01-20T07:35:15.868Z,99.99
2023-01-20T07:36:15.580Z,99.99
2023-01-20T07:37:15.568Z,99.99
2023-01-20T07:38:15.554Z,99.99
2023-01-20T07:39:15.545Z,99.99
2023-01-20T07:40:15.525Z,99.99
2023-01-20T07:41:15.506Z,99.99
2023-01-20T07:42:15.511Z,99.99
2023-01-20T07:43:15.490Z,99.99
2023-01-20T07:44:15.469Z,99.99
2023-01-20T07:45:15.742Z,99.99
2023-01-20T07:46:15.474Z,99.99
2023-01-20T07:47:15.454Z,99.99
2023-01-20T07:48:15.417Z,99.99
2023-01-20T07:49:15.412Z,99.99
2023-01-20T07:50:15.397Z,99.99
2023-01-20T07:51:15.384Z,99.99
2023-01-20T07:52:15.398Z,99.99
2023-01-20T07:53:15.358Z,99.99
2023-01-20T07:54:15.348Z,99.99
2023-01-20T07:55:15.726Z,99.99
2023-01-20T07:56:15.335Z,99.99
2023-01-20T07:57:15.329Z,99.99
2023-01-20T07:58:15.294Z,99.99
2023-01-20T07:59:15.281Z,99.99
2023-01-20T08:00:15.269Z,99.99
2023-01-20T08:01:15.414Z,99.99
2023-01-20T08:02:15.283Z,99.99
2023-01-20T08:03:15.236Z,99.99
2023-01-20T08:04:15.221Z,99.99
2023-01-20T08:05:15.563Z,99.99
2023-01-20T08:06:15.200Z,99.99
2023-01-20T08:07:15.195Z,99.99
2023-01-20T08:08:15.167Z,99.99
2023-01-20T08:09:15.154Z,99.99
2023-01-20T08:10:15.182Z,99.99
2023-01-20T08:11:15.130Z,99.99
2023-01-20T08:12:15.130Z,99.99
2023-01-20T08:13:15.107Z,99.99
2023-01-20T08:14:15.095Z,99.99
2023-01-20T08:15:15.363Z,99.99
2023-01-20T08:16:15.124Z,99.99
2023-01-20T08:17:15.109Z,99.99
2023-01-20T08:18:15.065Z,99.99
2023-01-20T08:19:15.028Z,99.99
2023-01-20T08:20:15.022Z,99.99
2023-01-20T08:21:15.002Z,99.99
2023-01-20T08:22:15.007Z,99.99
2023-01-20T08:23:14.989Z,99.99
2023-01-20T08:24:14.963Z,99.99
2023-01-20T08:25:15.179Z,99.99
2023-01-20T08:26:14.942Z,99.99
2023-01-20T08:27:14.938Z,99.99
2023-01-20T08:28:14.924Z,99.99
2023-01-20T08:29:14.904Z,99.99
2023-01-20T08:30:14.892Z,99.99
2023-01-20T08:31:15.105Z,99.99
2023-01-20T08:32:14.888Z,99.99
2023-01-20T08:33:14.860Z,99.99
2023-01-20T08:34:14.865Z,99.99
2023-01-20T08:35:15.062Z,99.99
2023-01-20T08:36:14.816Z,99.99
2023-01-20T08:37:14.824Z,99.99
2023-01-20T08:38:14.873Z,99.99
2023-01-20T08:39:14.816Z,99.99
2023-01-20T08:40:14.816Z,99.99
2023-01-20T08:41:14.755Z,99.99
2023-01-20T08:42:14.750Z,99.99
2023-01-20T08:43:14.731Z,99.99
2023-01-20T08:44:14.718Z,99.99
2023-01-20T08:45:15.091Z,99.99
2023-01-20T08:46:14.823Z,99.99
2023-01-20T08:47:14.698Z,99.99
2023-01-20T08:48:14.663Z,99.99
2023-01-20T08:49:14.647Z,99.99
2023-01-20T08:50:14.672Z,99.99
2023-01-20T08:51:14.679Z,99.99
2023-01-20T08:52:14.640Z,99.99
2023-01-20T08:53:14.600Z,99.99
2023-01-20T08:54:14.603Z,99.99
2023-01-20T08:55:14.861Z,99.99
2023-01-20T08:56:14.561Z,99.99
2023-01-20T08:57:14.546Z,99.99
2023-01-20T08:58:14.552Z,99.99
2023-01-20T08:59:14.532Z,99.99
2023-01-20T09:00:14.515Z,99.99
2023-01-20T09:01:14.544Z,99.99
2023-01-20T09:02:14.516Z,99.99
2023-01-20T09:03:14.485Z,99.99
2023-01-20T09:04:14.461Z,99.99
2023-01-20T09:05:14.798Z,99.99
2023-01-20T09:06:14.500Z,99.99
2023-01-20T09:07:14.437Z,99.99
2023-01-20T09:08:14.426Z,99.99
2023-01-20T09:09:14.406Z,99.99
2023-01-20T09:10:14.388Z,99.99
2023-01-20T09:11:14.414Z,99.99
2023-01-20T09:12:14.358Z,99.99
2023-01-20T09:13:14.370Z,99.99
2023-01-20T09:14:14.337Z,99.99
2023-01-20T09:15:14.587Z,99.99
2023-01-20T09:16:14.334Z,99.99
2023-01-20T09:17:14.294Z,99.99
2023-01-20T09:18:14.296Z,99.99
2023-01-20T09:19:14.275Z,99.99
2023-01-20T09:20:14.274Z,99.99
2023-01-20T09:21:14.274Z,99.99
2023-01-20T09:22:16.503Z,99.99
2023-01-20T09:23:14.244Z,99.99
2023-01-20T09:24:14.207Z,99.99
2023-01-20T09:25:14.618Z,99.99
2023-01-20T09:26:19.723Z,99.99
2023-01-20T09:27:14.171Z,99.99
2023-01-20T09:28:14.196Z,99.99
2023-01-20T09:29:14.156Z,99.99
2023-01-20T09:30:14.130Z,99.99
2023-01-20T09:31:14.288Z,99.99
2023-01-20T09:32:14.111Z,99.99
2023-01-20T09:33:14.122Z,99.99
2023-01-20T09:34:15.390Z,99.99
2023-01-20T09:35:14.558Z,99.99
2023-01-20T09:36:14.058Z,99.99
2023-01-20T09:37:14.043Z,99.99
2023-01-20T09:38:14.065Z,99.99
2023-01-20T09:39:14.017Z,99.99
2023-01-20T09:40:14.347Z,99.99
2023-01-20T09:41:13.994Z,99.99
2023-01-20T09:42:13.982Z,99.99
2023-01-20T09:43:13.979Z,99.99
2023-01-20T09:44:13.955Z,99.99
2023-01-20T09:45:14.419Z,99.99
2023-01-20T09:46:13.981Z,99.99
2023-01-20T09:47:13.928Z,99.99
2023-01-20T09:48:13.911Z,99.99
2023-01-20T09:49:13.897Z,99.99
2023-01-20T09:50:14.352Z,99.99
2023-01-20T09:51:13.867Z,99.99
2023-01-20T09:52:13.847Z,99.99
2023-01-20T09:53:13.852Z,99.54
2023-01-20T09:54:13.840Z,99.99
2023-01-20T09:55:13.821Z,99.99
2023-01-20T09:56:13.801Z,99.99
2023-01-20T09:57:13.784Z,99.99
2023-01-20T09:58:13.767Z,99.99
2023-01-20T09:59:13.773Z,99.99
2023-01-20T10:00:14.133Z,99.75
2023-01-20T10:01:13.781Z,99.99
2023-01-20T10:02:13.724Z,99.99
2023-01-20T10:03:13.712Z,99.99
2023-01-20T10:04:13.712Z,99.99
2023-01-20T10:05:13.769Z,99.85
2023-01-20T10:06:13.668Z,99.95
2023-01-20T10:07:13.660Z,99.99
2023-01-20T10:08:13.649Z,99.99
2023-01-20T10:09:13.652Z,99.99
2023-01-20T10:10:13.938Z,99.99
2023-01-20T10:11:13.672Z,99.45
2023-01-20T10:12:13.597Z,98.41
2023-01-20T10:13:13.587Z,96.97
2023-01-20T10:14:13.626Z,96.33
2023-01-20T10:15:13.561Z,97.20
2023-01-20T10:16:13.724Z,98.14
2023-01-20T10:17:13.541Z,98.35
2023-01-20T10:18:13.570Z,97.89
2023-01-20T10:19:13.522Z,97.52
2023-01-20T10:20:13.835Z,97.72
2023-01-20T10:21:13.483Z,98.04
2023-01-20T10:22:13.464Z,97.68
2023-01-20T10:23:13.456Z,97.68
2023-01-20T10:24:13.451Z,97.47
2023-01-20T10:25:13.439Z,97.58
2023-01-20T10:26:13.466Z,97.27
2023-01-20T10:27:13.405Z,97.16
2023-01-20T10:28:13.385Z,97.06
2023-01-20T10:29:13.393Z,97.78
2023-01-20T10:30:13.689Z,97.78
2023-01-20T10:31:13.493Z,97.78
2023-01-20T10:32:13.335Z,97.78
2023-01-20T10:33:13.327Z,97.65
2023-01-20T10:34:13.323Z,96.27
2023-01-20T10:35:13.705Z,93.23
2023-01-20T10:36:13.286Z,90.20
2023-01-20T10:37:13.274Z,87.17
2023-01-20T10:38:13.256Z,83.44
2023-01-20T10:39:13.269Z,80.16
2023-01-20T10:40:13.291Z,78.34
2023-01-20T10:41:15.593Z,76.83
2023-01-20T10:42:13.244Z,75.76
2023-01-20T10:43:13.215Z,75.01
2023-01-20T10:44:13.199Z,76.21
2023-01-20T10:45:13.789Z,77.83
2023-01-20T10:46:13.163Z,78.83
2023-01-20T10:47:13.735Z,79.69
2023-01-20T10:48:13.125Z,80.94
2023-01-20T10:49:13.143Z,82.36
2023-01-20T10:50:13.108Z,83.85
2023-01-20T10:51:13.091Z,84.61
2023-01-20T10:52:13.076Z,85.75
2023-01-20T10:53:13.674Z,85.79
2023-01-20T10:54:13.061Z,86.21
2023-01-20T10:55:13.396Z,87.28
2023-01-20T10:56:13.020Z,87.38
2023-01-20T10:57:13.014Z,87.80
2023-01-20T10:58:13.027Z,88.11
2023-01-20T10:59:13.011Z,88.57
2023-01-20T11:00:13.148Z,89.13
2023-01-20T11:01:12.962Z,89.44
2023-01-20T11:02:13.032Z,90.20
2023-01-20T11:03:12.976Z,90.62
2023-01-20T11:04:12.917Z,91.35
2023-01-20T11:05:12.921Z,91.55
2023-01-20T11:06:12.889Z,91.66
2023-01-20T11:07:12.882Z,91.52
2023-01-20T11:08:12.865Z,91.52
2023-01-20T11:09:12.852Z,91.41
2023-01-20T11:10:13.326Z,91.31
2023-01-20T11:11:12.828Z,91.20
2023-01-20T11:12:12.811Z,90.79
2023-01-20T11:13:12.799Z,91.10
2023-01-20T11:14:12.816Z,90.79
2023-01-20T11:15:12.792Z,90.89
2023-01-20T11:16:12.915Z,91.41
2023-01-20T11:17:12.751Z,91.45
2023-01-20T11:18:12.735Z,91.76
2023-01-20T11:19:12.721Z,91.35
2023-01-20T11:20:12.726Z,91.76
2023-01-20T11:21:12.695Z,92.28
2023-01-20T11:22:12.682Z,92.18
2023-01-20T11:23:12.676Z,92.18
2023-01-20T11:24:12.665Z,92.28
2023-01-20T11:25:12.671Z,92.07
2023-01-20T11:26:12.714Z,92.07
2023-01-20T11:27:12.619Z,92.32
2023-01-20T11:28:12.608Z,93.30
2023-01-20T11:29:12.602Z,94.03
2023-01-20T11:30:12.675Z,94.07
2023-01-20T11:31:12.689Z,94.38
2023-01-20T11:32:12.557Z,95.26
2023-01-20T11:33:12.568Z,94.90
2023-01-20T11:34:12.550Z,94.65
2023-01-20T11:35:12.776Z,93.72
2023-01-20T11:36:12.506Z,93.26
2023-01-20T11:37:12.498Z,93.18
2023-01-20T11:38:12.477Z,90.14
2023-01-20T11:39:12.469Z,86.83
2023-01-20T11:40:12.573Z,82.89
2023-01-20T11:41:12.440Z,81.21
2023-01-20T11:42:12.434Z,82.04
2023-01-20T11:43:12.411Z,83.68
2023-01-20T11:44:12.397Z,86.02
2023-01-20T11:45:21.177Z,85.68
2023-01-20T11:46:12.593Z,85.34
2023-01-20T11:47:12.363Z,87.14
2023-01-20T11:48:14.078Z,88.01
2023-01-20T11:49:12.347Z,88.67
2023-01-20T11:50:12.777Z,89.09
2023-01-20T11:51:12.314Z,89.04
2023-01-20T11:52:12.293Z,88.07
2023-01-20T11:53:12.280Z,87.87
2023-01-20T11:54:12.266Z,87.95
2023-01-20T11:55:12.271Z,87.97
2023-01-20T11:56:12.241Z,87.49
2023-01-20T11:57:12.232Z,83.25
2023-01-20T11:58:12.219Z,81.93
2023-01-20T11:59:12.200Z,79.75
2023-01-20T12:00:12.224Z,77.38
2023-01-20T12:01:12.179Z,76.21
2023-01-20T12:02:12.254Z,76.62
2023-01-20T12:03:12.154Z,73.30
2023-01-20T12:04:12.156Z,69.03
2023-01-20T12:05:12.144Z,69.31
2023-01-20T12:06:12.112Z,69.34
2023-01-20T12:07:12.102Z,67.70
2023-01-20T12:08:12.088Z,68.25
2023-01-20T12:09:12.079Z,66.96
2023-01-20T12:10:12.073Z,66.38
2023-01-20T12:11:12.043Z,67.63
2023-01-20T12:12:12.031Z,69.47
2023-01-20T12:13:12.019Z,71.45
2023-01-20T12:14:12.005Z,73.26
2023-01-20T12:15:11.994Z,74.84
2023-01-20T12:16:12.005Z,75.56
2023-01-20T12:17:11.966Z,74.22
2023-01-20T12:18:11.975Z,72.34
2023-01-20T12:19:11.948Z,70.77
2023-01-20T12:20:11.945Z,68.96
2023-01-20T12:21:11.950Z,68.46
2023-01-20T12:22:11.906Z,67.60
2023-01-20T12:23:11.886Z,68.62
2023-01-20T12:24:11.897Z,68.62
2023-01-20T12:25:11.867Z,68.32
2023-01-20T12:26:11.860Z,68.76
2023-01-20T12:27:11.833Z,69.23
2023-01-20T12:28:11.820Z,70.59
2023-01-20T12:29:11.809Z,72.54
2023-01-20T12:30:11.794Z,74.95
2023-01-20T12:31:11.828Z,77.28
2023-01-20T12:32:11.780Z,79.22
2023-01-20T12:33:11.758Z,80.39
2023-01-20T12:34:11.759Z,81.25
2023-01-20T12:35:11.730Z,81.46
2023-01-20T12:36:11.733Z,82.32
2023-01-20T12:37:11.708Z,83.19
2023-01-20T12:38:11.692Z,84.22
2023-01-20T12:39:11.682Z,84.27
2023-01-20T12:40:11.666Z,85.19
2023-01-20T12:41:11.668Z,85.34
2023-01-20T12:42:11.640Z,85.58
2023-01-20T12:43:11.626Z,86.45
2023-01-20T12:44:11.612Z,87.78
2023-01-20T12:45:11.604Z,88.82
2023-01-20T12:46:11.751Z,89.37
2023-01-20T12:47:11.577Z,90.10
2023-01-20T12:48:11.569Z,90.20
2023-01-20T12:49:11.563Z,90.31
2023-01-20T12:50:11.556Z,90.31
2023-01-20T12:51:11.545Z,90.19
2023-01-20T12:52:11.513Z,91.20